sensor_id;sensor_type;location;lat;lon;timestamp;P1;durP1;ratioP1;P2;durP2;ratioP2
14688;SDS011;7432;48.728;9.154;2022-08-19T00:01:37;14.85;;;13.63;;
14688;SDS011;7432;48.728;9.154;2022-08-19T00:04:07;14.97;;;13.67;;
14688;SDS011;7432;48.728;9.154;2022-08-19T00:06:38;15.03;;;13.83;;
14688;SDS011;7432;48.728;9.154;2022-08-19T00:09:06;15.93;;;14.43;;
14688;SDS011;7432;48.728;9.154;2022-08-19T00:11:35;14.98;;;13.73;;
14688;SDS011;7432;48.728;9.154;2022-08-19T00:14:03;15.73;;;14.30;;
14688;SDS011;7432;48.728;9.154;2022-08-19T00:16:31;14.93;;;13.73;;
14688;SDS011;7432;48.728;9.154;2022-08-19T00:18:58;15.18;;;13.82;;
14688;SDS011;7432;48.728;9.154;2022-08-19T00:21:26;15.95;;;14.65;;
14688;SDS011;7432;48.728;9.154;2022-08-19T00:23:53;16.37;;;14.67;;
14688;SDS011;7432;48.728;9.154;2022-08-19T00:26:19;16.80;;;15.20;;
14688;SDS011;7432;48.728;9.154;2022-08-19T00:28:46;15.88;;;14.50;;
14688;SDS011;7432;48.728;9.154;2022-08-19T00:31:13;16.83;;;15.17;;
14688;SDS011;7432;48.728;9.154;2022-08-19T00:33:41;17.40;;;15.82;;
14688;SDS011;7432;48.728;9.154;2022-08-19T00:36:08;15.57;;;14.25;;
14688;SDS011;7432;48.728;9.154;2022-08-19T00:38:37;16.65;;;15.05;;
14688;SDS011;7432;48.728;9.154;2022-08-19T00:41:06;16.07;;;14.67;;
14688;SDS011;7432;48.728;9.154;2022-08-19T00:43:34;15.73;;;14.13;;
14688;SDS011;7432;48.728;9.154;2022-08-19T00:46:00;15.27;;;13.77;;
14688;SDS011;7432;48.728;9.154;2022-08-19T00:48:29;15.93;;;14.32;;
14688;SDS011;7432;48.728;9.154;2022-08-19T00:50:57;16.17;;;14.57;;
14688;SDS011;7432;48.728;9.154;2022-08-19T00:53:26;17.13;;;15.53;;
14688;SDS011;7432;48.728;9.154;2022-08-19T00:55:56;15.30;;;14.00;;
14688;SDS011;7432;48.728;9.154;2022-08-19T00:58:29;16.17;;;14.67;;
14688;SDS011;7432;48.728;9.154;2022-08-19T01:00:58;16.45;;;14.82;;
14688;SDS011;7432;48.728;9.154;2022-08-19T01:03:25;17.83;;;16.23;;
14688;SDS011;7432;48.728;9.154;2022-08-19T01:05:52;17.00;;;15.50;;
14688;SDS011;7432;48.728;9.154;2022-08-19T01:08:21;16.57;;;15.07;;
14688;SDS011;7432;48.728;9.154;2022-08-19T01:10:49;17.13;;;15.63;;
14688;SDS011;7432;48.728;9.154;2022-08-19T01:13:20;15.63;;;14.10;;
14688;SDS011;7432;48.728;9.154;2022-08-19T01:15:49;16.47;;;14.97;;
14688;SDS011;7432;48.728;9.154;2022-08-19T01:18:21;16.77;;;15.27;;
14688;SDS011;7432;48.728;9.154;2022-08-19T01:20:48;16.38;;;14.88;;
14688;SDS011;7432;48.728;9.154;2022-08-19T01:23:15;16.52;;;15.13;;
14688;SDS011;7432;48.728;9.154;2022-08-19T01:25:43;16.20;;;14.68;;
14688;SDS011;7432;48.728;9.154;2022-08-19T01:28:15;16.60;;;15.10;;
14688;SDS011;7432;48.728;9.154;2022-08-19T01:30:44;16.10;;;14.63;;
14688;SDS011;7432;48.728;9.154;2022-08-19T01:33:11;16.27;;;14.77;;
14688;SDS011;7432;48.728;9.154;2022-08-19T01:35:38;17.37;;;15.77;;
14688;SDS011;7432;48.728;9.154;2022-08-19T01:38:09;16.83;;;15.32;;
14688;SDS011;7432;48.728;9.154;2022-08-19T01:40:46;16.93;;;15.43;;
14688;SDS011;7432;48.728;9.154;2022-08-19T01:43:12;17.43;;;15.93;;
14688;SDS011;7432;48.728;9.154;2022-08-19T01:45:40;18.13;;;16.23;;
14688;SDS011;7432;48.728;9.154;2022-08-19T01:48:07;17.70;;;16.03;;
14688;SDS011;7432;48.728;9.154;2022-08-19T01:50:34;17.03;;;15.40;;
14688;SDS011;7432;48.728;9.154;2022-08-19T01:53:02;18.20;;;16.50;;
14688;SDS011;7432;48.728;9.154;2022-08-19T01:55:31;17.30;;;15.67;;
14688;SDS011;7432;48.728;9.154;2022-08-19T01:58:00;17.50;;;15.83;;
14688;SDS011;7432;48.728;9.154;2022-08-19T02:00:29;18.50;;;16.80;;
14688;SDS011;7432;48.728;9.154;2022-08-19T02:02:58;18.87;;;16.87;;
14688;SDS011;7432;48.728;9.154;2022-08-19T02:05:26;18.23;;;16.53;;
14688;SDS011;7432;48.728;9.154;2022-08-19T02:07:54;18.50;;;16.80;;
14688;SDS011;7432;48.728;9.154;2022-08-19T02:10:21;19.17;;;17.13;;
14688;SDS011;7432;48.728;9.154;2022-08-19T02:12:48;19.60;;;17.67;;
14688;SDS011;7432;48.728;9.154;2022-08-19T02:15:17;19.73;;;17.83;;
14688;SDS011;7432;48.728;9.154;2022-08-19T02:17:44;19.03;;;17.23;;
14688;SDS011;7432;48.728;9.154;2022-08-19T02:20:11;21.07;;;17.77;;
14688;SDS011;7432;48.728;9.154;2022-08-19T02:22:38;18.57;;;16.87;;
14688;SDS011;7432;48.728;9.154;2022-08-19T02:25:07;20.30;;;18.37;;
14688;SDS011;7432;48.728;9.154;2022-08-19T02:27:35;19.30;;;17.53;;
14688;SDS011;7432;48.728;9.154;2022-08-19T02:30:03;19.67;;;17.87;;
14688;SDS011;7432;48.728;9.154;2022-08-19T02:32:32;19.33;;;17.63;;
14688;SDS011;7432;48.728;9.154;2022-08-19T02:34:58;19.90;;;17.90;;
14688;SDS011;7432;48.728;9.154;2022-08-19T02:37:25;20.27;;;18.37;;
14688;SDS011;7432;48.728;9.154;2022-08-19T02:40:09;18.23;;;16.30;;
14688;SDS011;7432;48.728;9.154;2022-08-19T02:42:36;20.33;;;18.50;;
14688;SDS011;7432;48.728;9.154;2022-08-19T02:45:03;19.07;;;17.27;;
14688;SDS011;7432;48.728;9.154;2022-08-19T02:47:32;19.87;;;17.87;;
14688;SDS011;7432;48.728;9.154;2022-08-19T02:49:59;20.70;;;18.60;;
14688;SDS011;7432;48.728;9.154;2022-08-19T02:52:26;19.87;;;17.87;;
14688;SDS011;7432;48.728;9.154;2022-08-19T02:54:53;19.33;;;17.37;;
14688;SDS011;7432;48.728;9.154;2022-08-19T02:57:22;20.50;;;18.57;;
14688;SDS011;7432;48.728;9.154;2022-08-19T02:59:49;20.92;;;18.85;;
14688;SDS011;7432;48.728;9.154;2022-08-19T03:02:15;21.13;;;19.00;;
14688;SDS011;7432;48.728;9.154;2022-08-19T03:04:43;20.37;;;18.47;;
14688;SDS011;7432;48.728;9.154;2022-08-19T03:07:12;21.37;;;19.33;;
14688;SDS011;7432;48.728;9.154;2022-08-19T03:09:39;22.10;;;20.00;;
14688;SDS011;7432;48.728;9.154;2022-08-19T03:12:07;22.03;;;19.93;;
14688;SDS011;7432;48.728;9.154;2022-08-19T03:14:34;22.23;;;20.10;;
14688;SDS011;7432;48.728;9.154;2022-08-19T03:17:00;22.90;;;20.70;;
14688;SDS011;7432;48.728;9.154;2022-08-19T03:19:29;21.37;;;19.40;;
14688;SDS011;7432;48.728;9.154;2022-08-19T03:21:57;22.57;;;20.47;;
14688;SDS011;7432;48.728;9.154;2022-08-19T03:24:24;23.40;;;20.93;;
14688;SDS011;7432;48.728;9.154;2022-08-19T03:26:51;22.70;;;20.50;;
14688;SDS011;7432;48.728;9.154;2022-08-19T03:29:22;21.97;;;19.87;;
14688;SDS011;7432;48.728;9.154;2022-08-19T03:31:50;21.83;;;19.83;;
14688;SDS011;7432;48.728;9.154;2022-08-19T03:34:18;21.13;;;19.03;;
14688;SDS011;7432;48.728;9.154;2022-08-19T03:36:46;22.33;;;19.93;;
14688;SDS011;7432;48.728;9.154;2022-08-19T03:39:14;21.67;;;19.57;;
14688;SDS011;7432;48.728;9.154;2022-08-19T03:41:42;20.97;;;19.07;;
14688;SDS011;7432;48.728;9.154;2022-08-19T03:44:10;21.83;;;19.93;;
14688;SDS011;7432;48.728;9.154;2022-08-19T03:46:37;21.37;;;19.03;;
14688;SDS011;7432;48.728;9.154;2022-08-19T03:49:04;22.70;;;20.60;;
14688;SDS011;7432;48.728;9.154;2022-08-19T03:51:32;22.80;;;20.67;;
14688;SDS011;7432;48.728;9.154;2022-08-19T03:54:01;23.67;;;21.47;;
14688;SDS011;7432;48.728;9.154;2022-08-19T03:56:32;23.00;;;20.90;;
14688;SDS011;7432;48.728;9.154;2022-08-19T03:59:00;23.83;;;21.43;;
14688;SDS011;7432;48.728;9.154;2022-08-19T04:01:28;21.77;;;19.60;;
14688;SDS011;7432;48.728;9.154;2022-08-19T04:03:55;23.33;;;21.13;;
14688;SDS011;7432;48.728;9.154;2022-08-19T04:06:23;22.43;;;20.23;;
14688;SDS011;7432;48.728;9.154;2022-08-19T04:08:52;24.40;;;22.00;;
14688;SDS011;7432;48.728;9.154;2022-08-19T04:11:20;24.27;;;22.13;;
14688;SDS011;7432;48.728;9.154;2022-08-19T04:13:51;24.30;;;21.90;;
14688;SDS011;7432;48.728;9.154;2022-08-19T04:16:18;23.63;;;21.27;;
14688;SDS011;7432;48.728;9.154;2022-08-19T04:18:46;24.07;;;21.87;;
14688;SDS011;7432;48.728;9.154;2022-08-19T04:21:15;23.23;;;20.93;;
14688;SDS011;7432;48.728;9.154;2022-08-19T04:23:44;23.33;;;21.13;;
14688;SDS011;7432;48.728;9.154;2022-08-19T04:26:12;24.27;;;21.97;;
14688;SDS011;7432;48.728;9.154;2022-08-19T04:28:40;25.57;;;23.10;;
14688;SDS011;7432;48.728;9.154;2022-08-19T04:31:11;24.23;;;21.83;;
14688;SDS011;7432;48.728;9.154;2022-08-19T04:33:40;24.77;;;22.47;;
14688;SDS011;7432;48.728;9.154;2022-08-19T04:36:07;23.60;;;21.30;;
14688;SDS011;7432;48.728;9.154;2022-08-19T04:38:34;27.27;;;24.73;;
14688;SDS011;7432;48.728;9.154;2022-08-19T04:41:02;27.00;;;24.33;;
14688;SDS011;7432;48.728;9.154;2022-08-19T04:43:46;26.80;;;23.63;;
14688;SDS011;7432;48.728;9.154;2022-08-19T04:46:15;25.17;;;22.77;;
14688;SDS011;7432;48.728;9.154;2022-08-19T04:48:41;25.10;;;22.70;;
14688;SDS011;7432;48.728;9.154;2022-08-19T04:51:09;23.73;;;21.53;;
14688;SDS011;7432;48.728;9.154;2022-08-19T04:53:38;26.43;;;23.70;;
14688;SDS011;7432;48.728;9.154;2022-08-19T04:56:07;26.33;;;23.93;;
14688;SDS011;7432;48.728;9.154;2022-08-19T04:58:36;26.27;;;23.77;;
14688;SDS011;7432;48.728;9.154;2022-08-19T05:01:04;26.00;;;23.50;;
14688;SDS011;7432;48.728;9.154;2022-08-19T05:03:32;25.27;;;22.77;;
14688;SDS011;7432;48.728;9.154;2022-08-19T05:05:59;25.63;;;23.07;;
14688;SDS011;7432;48.728;9.154;2022-08-19T05:08:32;24.50;;;22.13;;
14688;SDS011;7432;48.728;9.154;2022-08-19T05:11:00;26.40;;;23.67;;
14688;SDS011;7432;48.728;9.154;2022-08-19T05:13:26;24.37;;;22.00;;
14688;SDS011;7432;48.728;9.154;2022-08-19T05:15:53;26.70;;;23.90;;
14688;SDS011;7432;48.728;9.154;2022-08-19T05:18:21;26.73;;;24.33;;
14688;SDS011;7432;48.728;9.154;2022-08-19T05:21:07;24.33;;;21.83;;
14688;SDS011;7432;48.728;9.154;2022-08-19T05:23:52;24.60;;;22.23;;
14688;SDS011;7432;48.728;9.154;2022-08-19T05:26:18;24.50;;;21.93;;
14688;SDS011;7432;48.728;9.154;2022-08-19T05:28:45;25.30;;;22.67;;
14688;SDS011;7432;48.728;9.154;2022-08-19T05:31:11;26.63;;;24.13;;
14688;SDS011;7432;48.728;9.154;2022-08-19T05:33:38;25.93;;;23.43;;
14688;SDS011;7432;48.728;9.154;2022-08-19T05:36:05;25.23;;;22.93;;
14688;SDS011;7432;48.728;9.154;2022-08-19T05:38:34;24.53;;;22.17;;
14688;SDS011;7432;48.728;9.154;2022-08-19T05:41:05;24.57;;;22.27;;
14688;SDS011;7432;48.728;9.154;2022-08-19T05:43:33;25.03;;;22.50;;
14688;SDS011;7432;48.728;9.154;2022-08-19T05:45:59;24.43;;;22.10;;
14688;SDS011;7432;48.728;9.154;2022-08-19T05:48:26;25.00;;;22.47;;
14688;SDS011;7432;48.728;9.154;2022-08-19T05:50:53;23.70;;;21.40;;
14688;SDS011;7432;48.728;9.154;2022-08-19T05:53:21;25.63;;;22.93;;
14688;SDS011;7432;48.728;9.154;2022-08-19T05:55:47;23.77;;;21.67;;
14688;SDS011;7432;48.728;9.154;2022-08-19T05:58:13;24.40;;;21.80;;
14688;SDS011;7432;48.728;9.154;2022-08-19T06:00:40;24.20;;;21.80;;
14688;SDS011;7432;48.728;9.154;2022-08-19T06:03:09;26.10;;;23.60;;
14688;SDS011;7432;48.728;9.154;2022-08-19T06:05:36;25.63;;;23.03;;
14688;SDS011;7432;48.728;9.154;2022-08-19T06:08:02;24.30;;;22.00;;
14688;SDS011;7432;48.728;9.154;2022-08-19T06:10:30;23.33;;;21.07;;
14688;SDS011;7432;48.728;9.154;2022-08-19T06:12:57;22.70;;;20.50;;
14688;SDS011;7432;48.728;9.154;2022-08-19T06:15:23;24.23;;;21.93;;
14688;SDS011;7432;48.728;9.154;2022-08-19T06:17:53;23.00;;;20.90;;
14688;SDS011;7432;48.728;9.154;2022-08-19T06:20:19;23.77;;;21.47;;
14688;SDS011;7432;48.728;9.154;2022-08-19T06:22:46;22.10;;;20.00;;
14688;SDS011;7432;48.728;9.154;2022-08-19T06:25:15;23.73;;;21.37;;
14688;SDS011;7432;48.728;9.154;2022-08-19T06:27:43;23.07;;;20.83;;
14688;SDS011;7432;48.728;9.154;2022-08-19T06:30:10;23.13;;;21.03;;
14688;SDS011;7432;48.728;9.154;2022-08-19T06:32:38;24.97;;;22.53;;
14688;SDS011;7432;48.728;9.154;2022-08-19T06:35:05;25.73;;;23.17;;
14688;SDS011;7432;48.728;9.154;2022-08-19T06:37:32;22.83;;;20.70;;
14688;SDS011;7432;48.728;9.154;2022-08-19T06:39:59;24.77;;;22.23;;
14688;SDS011;7432;48.728;9.154;2022-08-19T06:42:25;23.70;;;21.43;;
14688;SDS011;7432;48.728;9.154;2022-08-19T06:44:53;23.17;;;20.93;;
14688;SDS011;7432;48.728;9.154;2022-08-19T06:47:20;24.70;;;22.20;;
14688;SDS011;7432;48.728;9.154;2022-08-19T06:49:47;25.80;;;23.30;;
14688;SDS011;7432;48.728;9.154;2022-08-19T06:52:14;24.67;;;22.37;;
14688;SDS011;7432;48.728;9.154;2022-08-19T06:54:41;24.37;;;22.17;;
14688;SDS011;7432;48.728;9.154;2022-08-19T06:57:08;26.07;;;23.57;;
14688;SDS011;7432;48.728;9.154;2022-08-19T06:59:38;24.13;;;21.93;;
14688;SDS011;7432;48.728;9.154;2022-08-19T07:02:07;25.13;;;22.83;;
14688;SDS011;7432;48.728;9.154;2022-08-19T07:04:34;25.50;;;23.10;;
14688;SDS011;7432;48.728;9.154;2022-08-19T07:07:04;25.75;;;23.42;;
14688;SDS011;7432;48.728;9.154;2022-08-19T07:09:33;25.50;;;22.90;;
14688;SDS011;7432;48.728;9.154;2022-08-19T07:12:02;24.37;;;22.17;;
14688;SDS011;7432;48.728;9.154;2022-08-19T07:14:31;24.83;;;22.33;;
14688;SDS011;7432;48.728;9.154;2022-08-19T07:17:03;24.73;;;22.30;;
14688;SDS011;7432;48.728;9.154;2022-08-19T07:19:32;24.30;;;22.10;;
14688;SDS011;7432;48.728;9.154;2022-08-19T07:22:00;24.33;;;22.03;;
14688;SDS011;7432;48.728;9.154;2022-08-19T07:24:28;25.25;;;22.90;;
14688;SDS011;7432;48.728;9.154;2022-08-19T07:26:57;26.23;;;23.70;;
14688;SDS011;7432;48.728;9.154;2022-08-19T07:29:27;25.20;;;22.80;;
14688;SDS011;7432;48.728;9.154;2022-08-19T07:31:55;23.87;;;21.67;;
14688;SDS011;7432;48.728;9.154;2022-08-19T07:34:23;26.47;;;24.10;;
14688;SDS011;7432;48.728;9.154;2022-08-19T07:36:52;22.70;;;20.60;;
14688;SDS011;7432;48.728;9.154;2022-08-19T07:39:21;24.90;;;22.40;;
14688;SDS011;7432;48.728;9.154;2022-08-19T07:41:50;24.87;;;22.47;;
14688;SDS011;7432;48.728;9.154;2022-08-19T07:44:17;24.60;;;22.13;;
14688;SDS011;7432;48.728;9.154;2022-08-19T07:46:46;24.73;;;22.43;;
14688;SDS011;7432;48.728;9.154;2022-08-19T07:49:15;24.50;;;22.33;;
14688;SDS011;7432;48.728;9.154;2022-08-19T07:51:44;25.70;;;23.20;;
14688;SDS011;7432;48.728;9.154;2022-08-19T07:54:13;23.90;;;21.70;;
14688;SDS011;7432;48.728;9.154;2022-08-19T07:56:40;24.33;;;22.13;;
14688;SDS011;7432;48.728;9.154;2022-08-19T07:59:06;24.03;;;21.67;;
14688;SDS011;7432;48.728;9.154;2022-08-19T08:01:34;22.93;;;20.73;;
14688;SDS011;7432;48.728;9.154;2022-08-19T08:04:00;24.17;;;21.87;;
14688;SDS011;7432;48.728;9.154;2022-08-19T08:06:45;23.80;;;21.50;;
14688;SDS011;7432;48.728;9.154;2022-08-19T08:09:33;24.40;;;22.10;;
14688;SDS011;7432;48.728;9.154;2022-08-19T08:12:03;24.37;;;22.13;;
14688;SDS011;7432;48.728;9.154;2022-08-19T08:14:32;24.70;;;22.17;;
14688;SDS011;7432;48.728;9.154;2022-08-19T08:17:02;24.43;;;22.03;;
14688;SDS011;7432;48.728;9.154;2022-08-19T08:19:30;24.50;;;21.93;;
14688;SDS011;7432;48.728;9.154;2022-08-19T08:21:57;22.73;;;20.63;;
14688;SDS011;7432;48.728;9.154;2022-08-19T08:24:25;23.27;;;21.03;;
14688;SDS011;7432;48.728;9.154;2022-08-19T08:26:54;25.93;;;23.43;;
14688;SDS011;7432;48.728;9.154;2022-08-19T08:29:22;22.90;;;20.70;;
14688;SDS011;7432;48.728;9.154;2022-08-19T08:31:49;23.67;;;21.13;;
14688;SDS011;7432;48.728;9.154;2022-08-19T08:34:15;24.67;;;22.23;;
14688;SDS011;7432;48.728;9.154;2022-08-19T08:36:43;25.73;;;23.13;;
14688;SDS011;7432;48.728;9.154;2022-08-19T08:39:12;26.47;;;23.87;;
14688;SDS011;7432;48.728;9.154;2022-08-19T08:41:42;26.67;;;24.00;;
14688;SDS011;7432;48.728;9.154;2022-08-19T08:44:20;26.20;;;23.60;;
14688;SDS011;7432;48.728;9.154;2022-08-19T08:46:49;25.83;;;23.33;;
14688;SDS011;7432;48.728;9.154;2022-08-19T08:49:23;24.93;;;22.47;;
14688;SDS011;7432;48.728;9.154;2022-08-19T08:51:56;25.27;;;22.87;;
14688;SDS011;7432;48.728;9.154;2022-08-19T08:54:28;25.60;;;23.20;;
14688;SDS011;7432;48.728;9.154;2022-08-19T08:56:58;25.20;;;22.73;;
14688;SDS011;7432;48.728;9.154;2022-08-19T08:59:26;26.20;;;23.60;;
14688;SDS011;7432;48.728;9.154;2022-08-19T09:01:57;24.13;;;21.73;;
14688;SDS011;7432;48.728;9.154;2022-08-19T09:04:24;22.70;;;20.60;;
14688;SDS011;7432;48.728;9.154;2022-08-19T09:06:51;24.10;;;21.80;;
14688;SDS011;7432;48.728;9.154;2022-08-19T09:09:30;26.13;;;23.33;;
14688;SDS011;7432;48.728;9.154;2022-08-19T09:12:02;23.83;;;21.33;;
14688;SDS011;7432;48.728;9.154;2022-08-19T09:14:37;22.20;;;19.90;;
14688;SDS011;7432;48.728;9.154;2022-08-19T09:17:11;24.27;;;21.97;;
14688;SDS011;7432;48.728;9.154;2022-08-19T09:19:46;23.20;;;20.90;;
14688;SDS011;7432;48.728;9.154;2022-08-19T09:22:16;25.13;;;22.60;;
14688;SDS011;7432;48.728;9.154;2022-08-19T09:24:46;22.17;;;20.17;;
14688;SDS011;7432;48.728;9.154;2022-08-19T09:27:13;21.77;;;19.63;;
14688;SDS011;7432;48.728;9.154;2022-08-19T09:29:41;23.30;;;21.10;;
14688;SDS011;7432;48.728;9.154;2022-08-19T09:32:07;23.40;;;21.20;;
14688;SDS011;7432;48.728;9.154;2022-08-19T09:34:33;21.13;;;19.27;;
14688;SDS011;7432;48.728;9.154;2022-08-19T09:37:00;23.40;;;21.30;;
14688;SDS011;7432;48.728;9.154;2022-08-19T09:39:27;20.63;;;18.77;;
14688;SDS011;7432;48.728;9.154;2022-08-19T09:41:55;23.07;;;20.97;;
14688;SDS011;7432;48.728;9.154;2022-08-19T09:44:22;22.53;;;20.47;;
14688;SDS011;7432;48.728;9.154;2022-08-19T09:46:49;21.60;;;19.63;;
14688;SDS011;7432;48.728;9.154;2022-08-19T09:49:16;22.07;;;20.07;;
14688;SDS011;7432;48.728;9.154;2022-08-19T09:51:44;20.70;;;18.70;;
14688;SDS011;7432;48.728;9.154;2022-08-19T09:54:12;22.30;;;20.00;;
14688;SDS011;7432;48.728;9.154;2022-08-19T09:56:40;22.20;;;19.97;;
14688;SDS011;7432;48.728;9.154;2022-08-19T09:59:06;21.67;;;19.67;;
14688;SDS011;7432;48.728;9.154;2022-08-19T10:01:34;21.30;;;19.40;;
14688;SDS011;7432;48.728;9.154;2022-08-19T10:04:02;21.30;;;19.20;;
14688;SDS011;7432;48.728;9.154;2022-08-19T10:06:33;19.93;;;18.23;;
14688;SDS011;7432;48.728;9.154;2022-08-19T10:09:01;20.77;;;18.87;;
14688;SDS011;7432;48.728;9.154;2022-08-19T10:11:30;19.67;;;17.67;;
14688;SDS011;7432;48.728;9.154;2022-08-19T10:13:56;20.53;;;18.47;;
14688;SDS011;7432;48.728;9.154;2022-08-19T10:16:23;18.13;;;16.63;;
14688;SDS011;7432;48.728;9.154;2022-08-19T10:18:50;19.93;;;17.93;;
14688;SDS011;7432;48.728;9.154;2022-08-19T10:21:19;20.10;;;18.20;;
14688;SDS011;7432;48.728;9.154;2022-08-19T10:23:48;18.60;;;16.80;;
14688;SDS011;7432;48.728;9.154;2022-08-19T10:26:17;17.97;;;16.37;;
14688;SDS011;7432;48.728;9.154;2022-08-19T10:28:45;18.10;;;16.40;;
14688;SDS011;7432;48.728;9.154;2022-08-19T10:31:13;19.47;;;17.47;;
14688;SDS011;7432;48.728;9.154;2022-08-19T10:33:42;18.40;;;16.80;;
14688;SDS011;7432;48.728;9.154;2022-08-19T10:36:09;17.53;;;16.00;;
14688;SDS011;7432;48.728;9.154;2022-08-19T10:38:41;16.40;;;14.90;;
14688;SDS011;7432;48.728;9.154;2022-08-19T10:41:08;18.57;;;16.77;;
14688;SDS011;7432;48.728;9.154;2022-08-19T10:43:37;18.10;;;16.40;;
14688;SDS011;7432;48.728;9.154;2022-08-19T10:46:04;16.75;;;15.15;;
14688;SDS011;7432;48.728;9.154;2022-08-19T10:48:31;17.23;;;15.53;;
14688;SDS011;7432;48.728;9.154;2022-08-19T10:50:59;17.90;;;16.17;;
14688;SDS011;7432;48.728;9.154;2022-08-19T10:53:44;16.70;;;15.18;;
14688;SDS011;7432;48.728;9.154;2022-08-19T10:56:11;15.48;;;14.05;;
14688;SDS011;7432;48.728;9.154;2022-08-19T10:58:55;16.77;;;15.07;;
14688;SDS011;7432;48.728;9.154;2022-08-19T11:01:23;15.00;;;13.70;;
14688;SDS011;7432;48.728;9.154;2022-08-19T11:03:49;15.88;;;14.48;;
14688;SDS011;7432;48.728;9.154;2022-08-19T11:06:16;15.20;;;13.73;;
14688;SDS011;7432;48.728;9.154;2022-08-19T11:08:42;14.57;;;13.30;;
14688;SDS011;7432;48.728;9.154;2022-08-19T11:11:11;15.50;;;13.97;;
14688;SDS011;7432;48.728;9.154;2022-08-19T11:13:39;14.70;;;13.20;;
14688;SDS011;7432;48.728;9.154;2022-08-19T11:16:08;14.45;;;13.35;;
14688;SDS011;7432;48.728;9.154;2022-08-19T11:18:39;15.27;;;13.97;;
14688;SDS011;7432;48.728;9.154;2022-08-19T11:21:08;14.57;;;13.37;;
14688;SDS011;7432;48.728;9.154;2022-08-19T11:23:37;15.27;;;13.77;;
14688;SDS011;7432;48.728;9.154;2022-08-19T11:26:03;14.27;;;12.97;;
14688;SDS011;7432;48.728;9.154;2022-08-19T11:28:31;15.35;;;14.05;;
14688;SDS011;7432;48.728;9.154;2022-08-19T11:30:58;14.43;;;13.10;;
14688;SDS011;7432;48.728;9.154;2022-08-19T11:33:24;15.87;;;14.27;;
14688;SDS011;7432;48.728;9.154;2022-08-19T11:35:52;14.73;;;13.47;;
14688;SDS011;7432;48.728;9.154;2022-08-19T11:38:19;13.65;;;12.35;;
14688;SDS011;7432;48.728;9.154;2022-08-19T11:40:53;14.53;;;13.23;;
14688;SDS011;7432;48.728;9.154;2022-08-19T11:43:20;13.45;;;12.35;;
14688;SDS011;7432;48.728;9.154;2022-08-19T11:45:48;13.70;;;12.48;;
14688;SDS011;7432;48.728;9.154;2022-08-19T11:48:14;13.80;;;12.68;;
14688;SDS011;7432;48.728;9.154;2022-08-19T11:50:42;13.27;;;12.07;;
14688;SDS011;7432;48.728;9.154;2022-08-19T11:53:08;13.10;;;11.88;;
14688;SDS011;7432;48.728;9.154;2022-08-19T11:55:36;13.63;;;12.30;;
14688;SDS011;7432;48.728;9.154;2022-08-19T11:58:04;12.70;;;11.60;;
14688;SDS011;7432;48.728;9.154;2022-08-19T12:00:31;13.70;;;12.40;;
14688;SDS011;7432;48.728;9.154;2022-08-19T12:03:00;13.55;;;12.25;;
14688;SDS011;7432;48.728;9.154;2022-08-19T12:05:26;13.10;;;11.98;;
14688;SDS011;7432;48.728;9.154;2022-08-19T12:07:53;13.05;;;11.85;;
14688;SDS011;7432;48.728;9.154;2022-08-19T12:10:21;13.00;;;12.00;;
14688;SDS011;7432;48.728;9.154;2022-08-19T12:12:47;13.13;;;11.95;;
14688;SDS011;7432;48.728;9.154;2022-08-19T12:15:14;13.40;;;12.20;;
14688;SDS011;7432;48.728;9.154;2022-08-19T12:17:41;11.57;;;10.68;;
14688;SDS011;7432;48.728;9.154;2022-08-19T12:20:10;12.52;;;11.43;;
14688;SDS011;7432;48.728;9.154;2022-08-19T12:22:38;11.95;;;10.98;;
14688;SDS011;7432;48.728;9.154;2022-08-19T12:25:06;11.98;;;11.00;;
14688;SDS011;7432;48.728;9.154;2022-08-19T12:27:34;12.02;;;11.07;;
14688;SDS011;7432;48.728;9.154;2022-08-19T12:30:01;13.02;;;12.02;;
14688;SDS011;7432;48.728;9.154;2022-08-19T12:32:28;13.77;;;12.45;;
14688;SDS011;7432;48.728;9.154;2022-08-19T12:34:54;12.23;;;11.23;;
14688;SDS011;7432;48.728;9.154;2022-08-19T12:37:22;11.77;;;10.85;;
14688;SDS011;7432;48.728;9.154;2022-08-19T12:39:48;11.23;;;10.30;;
14688;SDS011;7432;48.728;9.154;2022-08-19T12:42:15;12.23;;;11.13;;
14688;SDS011;7432;48.728;9.154;2022-08-19T12:44:43;11.18;;;10.38;;
14688;SDS011;7432;48.728;9.154;2022-08-19T12:47:10;18.25;;;16.48;;
14688;SDS011;7432;48.728;9.154;2022-08-19T12:49:38;19.02;;;17.23;;
14688;SDS011;7432;48.728;9.154;2022-08-19T12:52:06;19.90;;;18.08;;
14688;SDS011;7432;48.728;9.154;2022-08-19T12:54:35;22.00;;;19.85;;
14688;SDS011;7432;48.728;9.154;2022-08-19T12:57:04;20.27;;;18.35;;
14688;SDS011;7432;48.728;9.154;2022-08-19T12:59:32;20.75;;;18.05;;
14688;SDS011;7432;48.728;9.154;2022-08-19T13:01:59;22.38;;;20.27;;
14688;SDS011;7432;48.728;9.154;2022-08-19T13:04:26;25.63;;;23.25;;
14688;SDS011;7432;48.728;9.154;2022-08-19T13:06:52;27.15;;;24.50;;
14688;SDS011;7432;48.728;9.154;2022-08-19T13:09:18;26.97;;;24.30;;
14688;SDS011;7432;48.728;9.154;2022-08-19T13:11:46;26.27;;;23.77;;
14688;SDS011;7432;48.728;9.154;2022-08-19T13:14:13;24.27;;;22.08;;
14688;SDS011;7432;48.728;9.154;2022-08-19T13:16:39;22.75;;;20.75;;
14688;SDS011;7432;48.728;9.154;2022-08-19T13:19:06;26.80;;;24.27;;
14688;SDS011;7432;48.728;9.154;2022-08-19T13:21:32;23.17;;;20.88;;
14688;SDS011;7432;48.728;9.154;2022-08-19T13:23:59;24.83;;;22.33;;
14688;SDS011;7432;48.728;9.154;2022-08-19T13:26:26;28.02;;;25.20;;
14688;SDS011;7432;48.728;9.154;2022-08-19T13:28:53;28.15;;;25.35;;
14688;SDS011;7432;48.728;9.154;2022-08-19T13:31:39;25.73;;;23.25;;
14688;SDS011;7432;48.728;9.154;2022-08-19T13:34:28;28.77;;;26.02;;
14688;SDS011;7432;48.728;9.154;2022-08-19T13:36:57;27.13;;;24.27;;
14688;SDS011;7432;48.728;9.154;2022-08-19T13:39:23;27.98;;;25.08;;
14688;SDS011;7432;48.728;9.154;2022-08-19T13:41:50;28.77;;;26.08;;
14688;SDS011;7432;48.728;9.154;2022-08-19T13:44:18;27.80;;;25.23;;
14688;SDS011;7432;48.728;9.154;2022-08-19T13:46:45;28.67;;;25.87;;
14688;SDS011;7432;48.728;9.154;2022-08-19T13:49:13;27.60;;;24.90;;
14688;SDS011;7432;48.728;9.154;2022-08-19T13:51:40;23.73;;;21.42;;
14688;SDS011;7432;48.728;9.154;2022-08-19T13:54:08;29.77;;;26.58;;
14688;SDS011;7432;48.728;9.154;2022-08-19T13:56:35;28.67;;;25.80;;
14688;SDS011;7432;48.728;9.154;2022-08-19T13:59:06;30.10;;;27.13;;
14688;SDS011;7432;48.728;9.154;2022-08-19T14:01:34;31.90;;;28.53;;
14688;SDS011;7432;48.728;9.154;2022-08-19T14:04:01;27.27;;;24.77;;
14688;SDS011;7432;48.728;9.154;2022-08-19T14:06:28;29.93;;;27.13;;
14688;SDS011;7432;48.728;9.154;2022-08-19T14:08:54;30.07;;;27.07;;
14688;SDS011;7432;48.728;9.154;2022-08-19T14:11:21;27.37;;;24.77;;
14688;SDS011;7432;48.728;9.154;2022-08-19T14:13:48;29.20;;;26.27;;
14688;SDS011;7432;48.728;9.154;2022-08-19T14:16:15;32.97;;;29.53;;
14688;SDS011;7432;48.728;9.154;2022-08-19T14:18:42;32.07;;;28.73;;
14688;SDS011;7432;48.728;9.154;2022-08-19T14:21:13;29.30;;;26.47;;
14688;SDS011;7432;48.728;9.154;2022-08-19T14:23:42;30.20;;;27.20;;
14688;SDS011;7432;48.728;9.154;2022-08-19T14:26:10;29.67;;;26.60;;
14688;SDS011;7432;48.728;9.154;2022-08-19T14:28:38;31.60;;;28.50;;
14688;SDS011;7432;48.728;9.154;2022-08-19T14:31:06;26.63;;;24.20;;
14688;SDS011;7432;48.728;9.154;2022-08-19T14:33:33;29.00;;;26.03;;
14688;SDS011;7432;48.728;9.154;2022-08-19T14:36:01;27.60;;;25.00;;
14688;SDS011;7432;48.728;9.154;2022-08-19T14:38:27;25.83;;;23.33;;
14688;SDS011;7432;48.728;9.154;2022-08-19T14:40:56;21.92;;;19.92;;